Time;durP1;ratioP1;P1;durP2;ratioP2;P2;SDS_P1;SDS_P2;PMS_P1;PMS_P2;Temp;Humidity;BMP_temperature;BMP_pressure;BME280_temperature;BME280_humidity;BME280_pressure;Samples;Min_cycle;Max_cycle;Signal;HPM_P1;HPM_P2
2023/01/10 00:02:14;;;;;;;8.70;2.70;;;;;;;6.28;82.94;100793.12;109060;1250;70991;-70
2023/01/10 00:04:43;;;;;;;6.20;2.20;;;;;;;6.26;83.13;100792.35;109124;1250;70253;-70
2023/01/10 00:07:11;;;;;;;9.00;1.90;;;;;;;6.34;83.11;100797.13;109058;1250;73331;-69
2023/01/10 00:09:40;;;;;;;13.70;2.60;;;;;;;6.27;82.90;100798.87;109115;1254;57169;-69
2023/01/10 00:14:56;;;;;;;6.40;2.40;;;;;;;6.34;82.45;100792.80;109160;1251;63580;-70
2023/01/10 00:17:25;;;;;;;7.90;2.10;;;;;;;6.33;82.16;100789.90;109150;1251;61596;-69
2023/01/10 00:19:54;;;;;;;8.10;2.30;;;;;;;6.30;82.05;100794.70;109136;1251;69408;-69
2023/01/10 00:22:24;;;;;;;7.40;2.70;;;;;;;6.35;82.20;100788.78;108944;1251;74186;-69
2023/01/10 00:24:53;;;;;;;7.30;2.20;;;;;;;6.34;82.13;100787.06;109141;1252;57161;-69
2023/01/10 00:27:22;;;;;;;6.30;2.10;;;;;;;6.35;82.32;100790.33;109189;1250;59569;-70
2023/01/10 00:29:51;;;;;;;11.00;2.40;;;;;;;6.38;82.47;100796.92;109068;1250;71731;-69
2023/01/10 00:32:21;;;;;;;7.60;2.00;;;;;;;6.35;82.38;100797.55;109063;1254;70749;-70
2023/01/10 00:34:49;;;;;;;13.50;2.80;;;;;;;6.40;82.20;100800.63;108918;1255;70963;-71
2023/01/10 00:37:18;;;;;;;9.20;2.50;;;;;;;6.36;82.30;100797.38;109126;1251;63038;-69
2023/01/10 00:39:47;;;;;;;10.80;2.40;;;;;;;6.34;82.32;100793.48;109152;1254;58151;-69
2023/01/10 00:45:28;;;;;;;8.50;2.40;;;;;;;6.40;81.89;100798.20;108960;1251;62242;-69
2023/01/10 00:47:57;;;;;;;8.20;2.30;;;;;;;6.36;82.28;100800.84;109150;1253;72158;-70
2023/01/10 00:50:25;;;;;;;10.40;2.50;;;;;;;6.33;82.18;100798.05;109179;1250;61249;-68
2023/01/10 00:52:54;;;;;;;9.00;2.50;;;;;;;6.36;82.29;100797.68;109117;1251;62524;-69
2023/01/10 00:55:23;;;;;;;8.30;2.40;;;;;;;6.35;82.52;100796.52;109089;1254;57652;-68
2023/01/10 00:57:51;;;;;;;9.50;2.70;;;;;;;6.39;82.31;100791.69;109117;1254;61142;-68
2023/01/10 01:00:20;;;;;;;7.40;2.60;;;;;;;6.39;82.20;100792.51;109138;1250;73260;-69
2023/01/10 01:02:50;;;;;;;5.10;2.20;;;;;;;6.40;82.07;100789.73;109193;1251;62837;-71
2023/01/10 01:05:20;;;;;;;10.00;2.60;;;;;;;6.38;81.98;100795.34;109143;1251;59005;-70
2023/01/10 01:07:51;;;;;;;11.20;2.70;;;;;;;6.33;82.19;100790.96;109055;1251;73048;-70
2023/01/10 01:10:26;;;;;;;9.60;2.70;;;;;;;6.35;82.47;100784.77;109086;1254;61057;-73
2023/01/10 01:13:15;;;;;;;7.60;2.40;;;;;;;6.40;82.63;100775.70;109096;1250;57570;-70
2023/01/10 01:15:44;;;;;;;6.90;2.30;;;;;;;6.32;82.50;100769.69;109153;1251;73579;-69
2023/01/10 01:18:19;;;;;;;8.70;2.90;;;;;;;6.31;82.64;100768.05;109070;1251;61692;-70
2023/01/10 01:20:53;;;;;;;7.40;2.40;;;;;;;6.32;83.09;100775.64;109083;1251;60131;-69
2023/01/10 01:23:23;;;;;;;10.70;2.30;;;;;;;6.30;82.91;100776.23;108951;1250;73889;-70
2023/01/10 01:25:53;;;;;;;10.90;3.10;;;;;;;6.30;83.13;100767.59;108982;1255;62759;-72
2023/01/10 01:28:22;;;;;;;10.10;2.40;;;;;;;6.25;83.31;100767.65;109146;1252;60676;-69
2023/01/10 01:30:51;;;;;;;7.60;2.70;;;;;;;6.26;83.14;100765.72;109122;1250;64512;-70
2023/01/10 01:33:20;;;;;;;6.10;2.40;;;;;;;6.26;83.14;100763.63;109176;1250;60991;-70
2023/01/10 01:35:49;;;;;;;9.10;3.20;;;;;;;6.28;83.00;100766.48;109183;1250;60064;-69
2023/01/10 01:38:18;;;;;;;11.90;2.60;;;;;;;6.29;83.11;100759.88;109112;1250;63359;-68
2023/01/10 01:40:47;;;;;;;11.60;2.70;;;;;;;6.35;82.70;100758.65;109053;1254;62163;-70
2023/01/10 01:43:24;;;;;;;12.40;2.40;;;;;;;6.36;82.74;100747.20;109160;1251;61270;-68
2023/01/10 01:45:54;;;;;;;6.80;2.10;;;;;;;6.31;82.68;100737.39;109057;1251;72750;-69
2023/01/10 01:48:33;;;;;;;11.30;2.60;;;;;;;6.30;82.80;100735.25;109067;1251;62151;-70
2023/01/10 01:51:19;;;;;;;8.70;2.20;;;;;;;6.33;82.62;100733.36;108977;1250;60066;-70
2023/01/10 01:53:53;;;;;;;10.80;2.60;;;;;;;6.34;82.53;100735.56;109145;1251;63345;-70
2023/01/10 01:56:30;;;;;;;5.00;2.20;;;;;;;6.36;82.52;100731.45;109164;1254;57698;-69
2023/01/10 01:59:19;;;;;;;11.30;2.70;;;;;;;6.35;82.87;100725.63;109235;1250;60873;-69
2023/01/10 02:01:54;;;;;;;9.10;2.40;;;;;;;6.34;82.60;100725.67;109151;1251;63445;-68
2023/01/10 02:04:47;;;;;;;8.50;2.50;;;;;;;6.37;82.56;100725.52;109224;1251;69676;-70
2023/01/10 02:07:17;;;;;;;13.30;2.60;;;;;;;6.35;82.39;100720.23;109115;1250;59861;-70
2023/01/10 02:09:57;;;;;;;7.40;2.40;;;;;;;6.34;82.73;100718.92;109113;1251;73183;-69
2023/01/10 02:12:29;;;;;;;10.90;2.70;;;;;;;6.32;82.60;100719.03;109203;1254;57131;-71
2023/01/10 02:14:58;;;;;;;7.30;2.20;;;;;;;6.28;82.86;100718.71;108967;1250;60445;-71
2023/01/10 02:17:27;;;;;;;6.90;2.30;;;;;;;6.37;82.48;100715.86;109138;1251;72227;-71
2023/01/10 02:20:02;;;;;;;9.60;2.30;;;;;;;6.36;82.25;100711.52;109259;1251;61664;-69
2023/01/10 02:22:58;;;;;;;9.60;2.60;;;;;;;6.41;82.37;100704.02;109136;1250;70511;-70
2023/01/10 02:25:39;;;;;;;6.70;2.80;;;;;;;6.41;82.29;100709.05;109112;1250;63757;-69
2023/01/10 02:28:58;;;;;;;10.90;2.90;;;;;;;6.37;82.29;100706.00;109161;1253;57465;-69
2023/01/10 02:32:07;;;;;;;8.60;2.40;;;;;;;6.38;82.39;100701.23;109132;1250;57807;-70
2023/01/10 02:35:14;;;;;;;8.90;2.60;;;;;;;6.34;82.54;100696.09;109224;1250;63017;-70
2023/01/10 02:38:16;;;;;;;5.50;2.30;;;;;;;6.33;82.83;100695.45;109053;1251;72193;-71
2023/01/10 02:41:01;;;;;;;10.80;2.60;;;;;;;6.34;82.73;100694.36;109146;1250;60392;-72
2023/01/10 02:43:38;;;;;;;9.40;2.90;;;;;;;6.33;83.17;100686.27;109197;1250;73878;-69
2023/01/10 02:46:27;;;;;;;12.60;3.50;;;;;;;6.29;83.03;100688.23;109157;1251;57308;-69
2023/01/10 02:48:56;;;;;;;8.10;2.60;;;;;;;6.34;83.19;100680.69;109130;1250;61130;-69
2023/01/10 02:51:29;;;;;;;11.50;2.70;;;;;;;6.37;83.23;100680.02;108832;1251;72419;-69
2023/01/10 02:54:28;;;;;;;15.20;2.90;;;;;;;6.34;83.57;100681.04;109156;1250;71971;-69
2023/01/10 02:57:13;;;;;;;7.90;2.60;;;;;;;6.34;83.91;100679.66;109008;1251;68945;-69
2023/01/10 03:00:16;;;;;;;11.80;2.70;;;;;;;6.34;84.14;100675.71;109050;1251;64166;-70
2023/01/10 03:03:26;;;;;;;9.50;2.70;;;;;;;6.35;84.43;100677.19;109046;1251;63013;-70
2023/01/10 03:06:35;;;;;;;10.50;2.70;;;;;;;6.33;84.20;100678.53;108741;1251;57750;-69
2023/01/10 03:09:20;;;;;;;9.20;3.20;;;;;;;6.35;84.41;100685.14;108766;1251;336042;-69
2023/01/10 03:12:01;;;;;;;8.70;2.80;;;;;;;6.39;84.36;100681.99;109002;1251;71684;-69
2023/01/10 03:14:32;;;;;;;10.60;2.80;;;;;;;6.32;84.69;100682.71;108978;1251;70875;-68
2023/01/10 03:17:07;;;;;;;6.80;2.80;;;;;;;6.35;84.74;100687.94;109075;1251;74459;-68
2023/01/10 03:20:00;;;;;;;11.60;2.90;;;;;;;6.34;85.11;100687.95;108946;1254;57704;-70
2023/01/10 03:22:34;;;;;;;11.10;3.30;;;;;;;6.35;85.35;100683.08;109045;1251;61657;-69
2023/01/10 03:25:06;;;;;;;11.80;3.20;;;;;;;6.34;85.16;100685.52;108971;1251;73411;-69
2023/01/10 03:27:54;;;;;;;9.20;3.30;;;;;;;6.34;85.51;100690.06;108895;1251;72029;-69
2023/01/10 03:30:38;;;;;;;9.70;3.10;;;;;;;6.36;85.23;100689.27;109059;1254;59893;-69
2023/01/10 03:33:08;;;;;;;11.20;3.50;;;;;;;6.30;85.50;100686.14;108929;1251;63325;-69
2023/01/10 03:36:08;;;;;;;8.30;3.30;;;;;;;6.29;85.61;100688.25;109091;1251;57742;-69
2023/01/10 03:39:22;;;;;;;9.50;3.90;;;;;;;6.29;86.00;100692.02;109112;1251;57688;-69
2023/01/10 03:45:58;;;;;;;9.80;3.70;;;;;;;6.28;85.75;100679.14;109065;1251;72879;-71
2023/01/10 03:48:33;;;;;;;11.80;3.30;;;;;;;6.26;85.83;100679.21;109071;1251;69712;-68
2023/01/10 03:51:05;;;;;;;12.80;3.40;;;;;;;6.30;85.78;100676.77;108935;1251;74213;-69
2023/01/10 03:53:37;;;;;;;9.00;3.80;;;;;;;6.33;85.60;100674.70;108843;1251;62002;-70
2023/01/10 03:56:06;;;;;;;10.90;3.00;;;;;;;6.29;85.94;100674.75;108933;1251;60892;-70
2023/01/10 03:58:35;;;;;;;10.30;3.40;;;;;;;6.34;85.83;100674.81;109006;1251;62784;-70
2023/01/10 04:01:04;;;;;;;9.00;3.20;;;;;;;6.37;85.71;100672.05;109101;1251;71380;-69
2023/01/10 04:03:33;;;;;;;10.90;3.70;;;;;;;6.34;85.93;100671.71;109058;1251;71373;-69
2023/01/10 04:06:03;;;;;;;14.40;3.70;;;;;;;6.36;86.06;100664.70;108954;1251;73383;-69
2023/01/10 04:08:32;;;;;;;14.30;4.00;;;;;;;6.32;86.31;100651.23;108751;1251;63562;-69
2023/01/10 04:11:00;;;;;;;9.70;4.10;;;;;;;6.37;86.39;100648.86;108872;1251;62324;-69
2023/01/10 04:13:29;;;;;;;11.30;4.00;;;;;;;6.39;86.41;100648.11;108888;1251;62559;-69
2023/01/10 04:15:59;;;;;;;12.80;3.80;;;;;;;6.37;86.49;100650.27;108924;1251;61733;-69
2023/01/10 04:18:28;;;;;;;15.00;3.80;;;;;;;6.35;86.61;100647.44;108917;1251;60095;-69
2023/01/10 04:20:57;;;;;;;14.70;4.60;;;;;;;6.36;86.56;100643.23;108854;1251;72755;-69
2023/01/10 04:23:26;;;;;;;10.90;4.00;;;;;;;6.34;86.83;100641.98;108763;1254;63418;-68
2023/01/10 04:25:54;;;;;;;11.20;3.50;;;;;;;6.37;86.85;100646.83;109062;1251;57675;-68
2023/01/10 04:28:23;;;;;;;9.00;3.50;;;;;;;6.40;86.93;100649.61;109064;1254;62974;-69
2023/01/10 04:30:52;;;;;;;11.40;4.10;;;;;;;6.41;86.62;100647.62;109065;1254;61662;-68
2023/01/10 04:33:21;;;;;;;15.30;4.00;;;;;;;6.39;86.89;100646.69;109090;1251;70568;-70
2023/01/10 04:35:51;;;;;;;13.30;4.40;;;;;;;6.34;87.03;100644.02;109150;1251;74925;-70
2023/01/10 04:38:20;;;;;;;13.00;4.10;;;;;;;6.36;87.18;100645.66;108925;1254;61883;-71
2023/01/10 04:40:55;;;;;;;9.30;3.50;;;;;;;6.38;87.10;100643.45;109128;1250;58158;-72
2023/01/10 04:43:25;;;;;;;14.10;4.20;;;;;;;6.34;88.21;100643.52;109214;1250;73638;-71
2023/01/10 04:45:53;;;;;;;9.20;3.70;;;;;;;6.38;88.33;100652.30;109040;1250;60755;-70
2023/01/10 04:48:22;;;;;;;13.20;3.90;;;;;;;6.30;89.23;100652.36;109161;1250;60365;-73
2023/01/10 04:50:52;;;;;;;11.60;4.10;;;;;;;6.25;90.32;100656.30;109213;1254;62517;-70
2023/01/10 04:53:21;;;;;;;14.20;3.50;;;;;;;6.17;91.25;100660.19;109016;1254;57249;-74
2023/01/10 04:55:50;;;;;;;9.20;3.70;;;;;;;6.23;90.86;100659.88;109181;1254;59357;-71
2023/01/10 04:58:19;;;;;;;12.40;4.10;;;;;;;6.18;91.71;100656.89;109217;1251;62218;-70
2023/01/10 05:00:48;;;;;;;12.10;3.70;;;;;;;6.11;92.90;100654.48;109267;1250;71404;-73
2023/01/10 05:03:19;;;;;;;11.50;4.00;;;;;;;6.12;92.63;100652.00;109241;1251;70016;-69
2023/01/10 05:05:47;;;;;;;12.80;4.80;;;;;;;6.03;94.27;100653.34;109183;1250;73450;-71
2023/01/10 05:08:16;;;;;;;13.00;4.60;;;;;;;5.99;94.73;100653.75;109241;1252;57739;-69
2023/01/10 05:10:45;;;;;;;9.90;3.70;;;;;;;6.03;94.70;100654.40;109233;1251;57708;-72
2023/01/10 05:13:14;;;;;;;11.40;4.30;;;;;;;6.02;94.31;100655.45;109208;1251;63078;-70
2023/01/10 05:15:42;;;;;;;11.00;4.50;;;;;;;6.04;94.94;100660.76;109136;1250;72497;-70
2023/01/10 05:18:11;;;;;;;11.80;4.70;;;;;;;6.03;94.31;100664.11;109208;1250;70841;-71
2023/01/10 05:20:40;;;;;;;10.60;4.10;;;;;;;6.07;94.23;100658.83;109191;1253;63400;-71
2023/01/10 05:23:09;;;;;;;11.50;4.50;;;;;;;6.09;93.68;100661.14;109020;1250;62475;-70
2023/01/10 05:25:37;;;;;;;16.10;4.80;;;;;;;6.10;93.84;100664.71;109284;1250;61181;-67
2023/01/10 05:28:06;;;;;;;12.50;4.00;;;;;;;6.10;93.25;100659.52;109292;1252;62744;-71
2023/01/10 05:30:36;;;;;;;10.20;3.80;;;;;;;6.16;93.22;100665.27;109204;1251;62253;-71
2023/01/10 05:33:05;;;;;;;9.60;3.30;;;;;;;6.16;92.92;100667.36;109223;1251;70532;-73
2023/01/10 05:35:34;;;;;;;7.50;3.40;;;;;;;6.20;92.78;100669.21;109263;1251;74487;-71
2023/01/10 05:38:03;;;;;;;10.40;3.90;;;;;;;6.20;92.52;100671.47;109109;1254;63511;-74
2023/01/10 05:40:31;;;;;;;11.80;3.80;;;;;;;6.20;92.40;100674.91;109210;1254;61734;-75
2023/01/10 05:43:00;;;;;;;11.70;3.80;;;;;;;6.19;92.21;100671.52;109318;1252;64266;-75
2023/01/10 05:45:29;;;;;;;8.80;2.80;;;;;;;6.16;92.49;100678.23;109258;1253;60874;-74
2023/01/10 05:47:58;;;;;;;12.70;3.80;;;;;;;6.20;92.21;100676.81;109278;1251;59887;-76
2023/01/10 05:50:27;;;;;;;12.20;3.30;;;;;;;6.22;91.57;100672.23;109194;1249;73273;-74
2023/01/10 05:53:04;;;;;;;;;;;;;;;6.19;91.69;100672.88;109068;1253;61797;-76
2023/01/10 05:55:33;;;;;;;10.10;3.20;;;;;;;6.24;91.57;100671.23;109296;1251;57161;-71
2023/01/10 05:58:02;;;;;;;10.70;4.20;;;;;;;6.27;91.79;100673.13;109264;1251;62994;-75
2023/01/10 06:00:31;;;;;;;11.50;3.40;;;;;;;6.29;91.37;100672.87;109199;1252;61683;-71
2023/01/10 06:03:00;;;;;;;10.90;3.50;;;;;;;6.30;91.61;100672.81;109276;1252;60826;-71
2023/01/10 06:05:29;;;;;;;10.90;4.00;;;;;;;6.31;91.72;100675.18;109279;1251;62243;-72
2023/01/10 06:07:58;;;;;;;10.80;3.60;;;;;;;6.23;92.74;100679.42;109207;1251;61504;-72
2023/01/10 06:10:27;;;;;;;8.10;3.20;;;;;;;6.20;92.54;100679.77;109165;1250;61590;-73
2023/01/10 06:12:56;;;;;;;12.70;3.80;;;;;;;6.23;92.75;100679.59;109215;1250;72898;-71
2023/01/10 06:15:25;;;;;;;8.30;3.30;;;;;;;6.28;92.75;100682.42;109174;1253;72061;-72
2023/01/10 06:17:54;;;;;;;12.40;3.40;;;;;;;6.23;93.92;100685.65;109208;1251;71123;-74
2023/01/10 06:20:23;;;;;;;13.10;4.00;;;;;;;6.19;94.43;100683.63;109017;1251;74157;-71
2023/01/10 06:22:51;;;;;;;9.00;3.40;;;;;;;6.17;95.11;100691.50;109120;1251;58143;-72
2023/01/10 06:25:20;;;;;;;9.40;3.30;;;;;;;6.16;95.60;100690.52;109155;1251;57748;-72
2023/01/10 06:27:49;;;;;;;10.30;4.10;;;;;;;6.15;96.11;100693.14;109101;1251;63019;-71
2023/01/10 06:30:18;;;;;;;8.00;3.00;;;;;;;6.12;95.90;100690.20;109170;1251;70607;-72
2023/01/10 06:32:47;;;;;;;9.80;3.30;;;;;;;6.07;96.48;100693.08;109135;1250;59605;-71
2023/01/10 06:35:16;;;;;;;7.40;3.20;;;;;;;6.06;96.89;100692.95;109035;1251;73894;-71
2023/01/10 06:37:45;;;;;;;7.50;2.90;;;;;;;5.98;97.99;100691.52;109118;1254;62012;-71
2023/01/10 06:40:15;;;;;;;13.70;3.80;;;;;;;6.00;98.15;100692.45;109125;1251;57149;-72
2023/01/10 06:42:43;;;;;;;12.50;3.80;;;;;;;5.91;99.42;100688.25;108965;1251;73540;-72
2023/01/10 06:45:12;;;;;;;8.50;3.90;;;;;;;5.87;99.96;100690.13;109166;1250;62135;-71
2023/01/10 06:47:41;;;;;;;11.30;3.70;;;;;;;5.86;100.00;100688.27;109066;1250;59237;-73
2023/01/10 06:50:12;;;;;;;7.40;3.30;;;;;;;5.79;100.00;100687.98;109075;1252;63390;-73
2023/01/10 06:52:40;;;;;;;9.20;4.30;;;;;;;5.78;100.00;100688.03;109129;1250;57229;-72
2023/01/10 06:55:09;;;;;;;9.00;4.40;;;;;;;5.77;100.00;100695.31;109188;1250;58133;-74
2023/01/10 06:57:38;;;;;;;7.40;2.90;;;;;;;5.75;100.00;100694.23;109110;1250;63015;-74
2023/01/10 07:00:10;;;;;;;7.60;4.00;;;;;;;5.72;100.00;100699.07;109091;1250;62007;-72
2023/01/10 07:02:39;;;;;;;9.50;4.60;;;;;;;5.71;100.00;100702.23;109094;1251;60075;-72
2023/01/10 07:05:08;;;;;;;10.40;4.10;;;;;;;5.67;100.00;100705.02;108939;1254;71636;-71
2023/01/10 07:07:39;;;;;;;11.80;3.60;;;;;;;5.65;100.00;100700.45;109122;1251;64187;-73
2023/01/10 07:10:08;;;;;;;8.70;3.50;;;;;;;5.71;100.00;100704.80;109127;1250;61594;-71
2023/01/10 07:12:37;;;;;;;9.50;3.70;;;;;;;5.74;100.00;100699.95;108945;1251;64401;-71
2023/01/10 07:15:07;;;;;;;10.00;4.90;;;;;;;5.74;100.00;100699.81;108992;1250;61567;-72
2023/01/10 07:17:36;;;;;;;9.00;3.90;;;;;;;5.74;100.00;100700.48;108679;1250;59023;-72
2023/01/10 07:20:05;;;;;;;8.90;3.90;;;;;;;5.73;100.00;100706.45;108779;1250;73871;-72
2023/01/10 07:22:34;;;;;;;7.00;3.50;;;;;;;5.70;100.00;100707.45;108722;1250;63373;-75
2023/01/10 07:25:05;;;;;;;7.20;3.10;;;;;;;5.73;100.00;100709.20;108936;1250;57190;-72
2023/01/10 07:27:34;;;;;;;7.40;3.50;;;;;;;5.78;100.00;100706.67;108902;1250;73600;-72
2023/01/10 07:30:04;;;;;;;8.00;3.80;;;;;;;5.75;100.00;100703.20;108897;1250;61625;-72
2023/01/10 07:32:33;;;;;;;11.90;4.60;;;;;;;5.77;100.00;100703.43;109008;1250;70507;-72
2023/01/10 07:35:02;;;;;;;10.20;4.50;;;;;;;5.77;100.00;100702.21;108949;1251;62900;-73
2023/01/10 07:37:31;;;;;;;11.80;4.50;;;;;;;5.70;100.00;100701.75;108934;1250;57641;-73
2023/01/10 07:40:00;;;;;;;8.70;3.90;;;;;;;5.52;100.00;100698.52;108915;1250;57625;-71
2023/01/10 07:42:29;;;;;;;7.90;4.60;;;;;;;5.49;100.00;100694.19;108966;1250;74248;-71
2023/01/10 07:44:57;;;;;;;12.60;4.80;;;;;;;5.42;100.00;100683.49;108966;1250;72541;-72
2023/01/10 07:47:27;;;;;;;10.90;4.40;;;;;;;5.34;100.00;100687.90;109000;1250;60518;-72
2023/01/10 07:49:56;;;;;;;10.60;4.50;;;;;;;5.32;100.00;100685.20;108981;1250;73857;-72
2023/01/10 07:52:24;;;;;;;13.70;4.30;;;;;;;5.30;100.00;100690.70;109017;1250;62009;-73
2023/01/10 07:54:53;;;;;;;15.10;5.10;;;;;;;5.21;100.00;100690.12;108827;1250;57211;-78
2023/01/10 07:57:22;;;;;;;10.50;4.40;;;;;;;5.22;100.00;100691.11;108951;1250;62965;-74
2023/01/10 07:59:51;;;;;;;9.20;4.10;;;;;;;5.15;100.00;100689.22;109013;1250;62237;-72
2023/01/10 08:02:20;;;;;;;8.20;4.00;;;;;;;5.16;100.00;100691.59;108991;1252;69429;-73
2023/01/10 08:04:49;;;;;;;7.60;4.40;;;;;;;5.11;100.00;100698.19;108800;1250;74205;-73
2023/01/10 08:07:17;;;;;;;9.10;5.00;;;;;;;5.09;100.00;100693.14;108778;1255;63352;-74
2023/01/10 08:09:46;;;;;;;10.90;4.70;;;;;;;4.98;100.00;100693.33;109031;1250;57671;-73
2023/01/10 08:12:15;;;;;;;12.40;5.80;;;;;;;5.03;100.00;100692.17;108964;1250;62936;-73
2023/01/10 08:14:44;;;;;;;9.20;4.10;;;;;;;5.02;100.00;100689.15;108973;1250;62047;-73
2023/01/10 08:17:13;;;;;;;8.00;4.30;;;;;;;5.09;100.00;100693.14;109035;1250;69430;-71
2023/01/10 08:19:43;;;;;;;9.70;4.60;;;;;;;5.10;100.00;100692.71;109176;1251;73815;-73
2023/01/10 08:22:12;;;;;;;7.10;4.20;;;;;;;5.10;100.00;100690.84;109108;1250;62441;-77
2023/01/10 08:24:41;;;;;;;10.30;3.80;;;;;;;5.11;100.00;100694.91;108997;1250;60342;-74
2023/01/10 08:27:09;;;;;;;8.90;4.40;;;;;;;5.14;100.00;100697.37;109041;1250;73941;-75
2023/01/10 08:29:38;;;;;;;8.70;4.50;;;;;;;5.14;100.00;100700.83;109057;1250;61285;-73
2023/01/10 08:32:07;;;;;;;7.90;4.10;;;;;;;5.15;100.00;100700.05;109010;1250;69674;-75
2023/01/10 08:34:36;;;;;;;10.90;3.90;;;;;;;5.21;100.00;100708.41;109006;1250;64589;-75
2023/01/10 08:37:05;;;;;;;8.80;4.40;;;;;;;5.20;100.00;100707.77;109114;1251;57558;-71
2023/01/10 08:39:34;;;;;;;8.20;3.90;;;;;;;5.13;100.00;100711.58;108940;1250;57762;-74
2023/01/10 08:42:03;;;;;;;8.30;4.60;;;;;;;5.07;100.00;100713.95;109148;1250;62993;-74
2023/01/10 08:44:32;;;;;;;8.30;4.50;;;;;;;5.14;100.00;100712.88;109092;1250;60997;-74
2023/01/10 08:47:01;;;;;;;6.60;4.20;;;;;;;5.10;100.00;100716.89;109121;1250;70518;-77
2023/01/10 08:49:30;;;;;;;11.30;5.90;;;;;;;5.19;100.00;100723.36;109166;1251;72176;-73
2023/01/10 08:52:01;;;;;;;10.40;5.10;;;;;;;5.17;100.00;100723.83;109129;1251;62338;-74
2023/01/10 08:54:30;;;;;;;8.70;5.10;;;;;;;5.17;100.00;100724.52;108881;1250;61488;-74
2023/01/10 08:56:58;;;;;;;9.10;4.50;;;;;;;5.13;100.00;100729.17;109154;1250;73193;-74
2023/01/10 08:59:28;;;;;;;7.90;5.10;;;;;;;5.07;100.00;100734.83;109120;1250;71765;-73
2023/01/10 09:01:58;;;;;;;7.50;4.30;;;;;;;5.09;100.00;100728.85;109081;1250;70201;-75
2023/01/10 09:04:28;;;;;;;10.90;5.30;;;;;;;5.01;100.00;100727.16;109124;1250;62889;-74
2023/01/10 09:07:00;;;;;;;8.20;5.30;;;;;;;5.00;100.00;100724.64;109172;1251;57641;-74
2023/01/10 09:09:29;;;;;;;8.50;4.50;;;;;;;4.98;100.00;100720.58;108992;1250;60446;-73
2023/01/10 09:11:58;;;;;;;7.80;4.30;;;;;;;5.05;100.00;100719.72;108996;1250;73550;-74
2023/01/10 09:14:26;;;;;;;7.20;3.70;;;;;;;5.01;100.00;100717.30;108944;1250;71350;-74
2023/01/10 09:16:55;;;;;;;6.40;3.40;;;;;;;5.03;100.00;100710.85;109143;1250;59810;-74
2023/01/10 09:19:24;;;;;;;6.80;3.60;;;;;;;4.94;100.00;100710.92;108892;1250;63391;-74
2023/01/10 09:21:53;;;;;;;7.50;3.40;;;;;;;4.96;100.00;100714.98;109136;1251;62040;-74
2023/01/10 09:24:22;;;;;;;5.60;3.40;;;;;;;4.92;100.00;100713.47;109113;1250;61949;-73
2023/01/10 09:26:51;;;;;;;6.00;3.30;;;;;;;4.89;100.00;100714.29;108918;1250;73123;-74
2023/01/10 09:29:20;;;;;;;7.10;3.30;;;;;;;4.88;100.00;100711.90;109147;1250;61485;-74
2023/01/10 09:31:49;;;;;;;7.00;3.90;;;;;;;4.95;100.00;100710.70;108941;1250;59250;-74
2023/01/10 09:34:18;;;;;;;5.90;3.60;;;;;;;5.02;100.00;100709.66;109176;1250;73075;-73
2023/01/10 09:36:47;;;;;;;6.00;3.90;;;;;;;4.97;100.00;100707.69;109205;1250;63508;-74
2023/01/10 09:39:16;;;;;;;8.90;3.50;;;;;;;4.94;100.00;100703.52;109169;1250;60975;-73
2023/01/10 09:42:02;;;;;;;9.70;4.20;;;;;;;4.97;100.00;100701.61;109197;1250;73084;-72
2023/01/10 09:44:49;;;;;;;6.00;3.70;;;;;;;4.93;100.00;100694.11;109168;1250;62177;-77
2023/01/10 09:47:53;;;;;;;7.20;3.60;;;;;;;4.94;100.00;100696.30;109228;1250;59950;-75
2023/01/10 09:50:40;;;;;;;6.10;3.10;;;;;;;4.98;100.00;100698.86;109137;1250;71406;-73
2023/01/10 09:53:18;;;;;;;6.80;3.60;;;;;;;4.95;100.00;100701.73;109116;1250;57070;-73
2023/01/10 09:55:56;;;;;;;9.00;3.90;;;;;;;4.92;100.00;100692.91;109184;1250;59339;-75
2023/01/10 09:58:30;;;;;;;6.40;3.70;;;;;;;4.93;100.00;100691.98;108958;1250;63852;-73
2023/01/10 10:01:06;;;;;;;5.50;3.20;;;;;;;5.00;100.00;100690.79;109085;1250;62045;-74
2023/01/10 10:04:11;;;;;;;6.50;3.40;;;;;;;4.94;100.00;100688.84;109154;1251;60344;-72
2023/01/10 10:06:40;;;;;;;6.70;3.80;;;;;;;4.87;100.00;100687.66;109117;1250;72888;-75
2023/01/10 10:09:16;;;;;;;7.20;4.10;;;;;;;4.86;100.00;100692.34;109139;1250;57241;-74
2023/01/10 10:12:42;;;;;;;6.20;3.70;;;;;;;4.91;100.00;100696.63;108937;1250;60191;-72
2023/01/10 10:15:14;;;;;;;7.60;3.10;;;;;;;4.86;100.00;100703.23;108949;1250;73060;-73
2023/01/10 10:18:16;;;;;;;6.10;3.10;;;;;;;4.77;100.00;100706.77;109133;1250;72696;-74
2023/01/10 10:21:17;;;;;;;5.00;3.00;;;;;;;4.77;100.00;100704.02;109116;1250;59134;-74
2023/01/10 10:23:56;;;;;;;4.80;3.30;;;;;;;4.77;100.00;100707.80;108801;1250;63386;-74
2023/01/10 10:27:00;;;;;;;6.00;2.90;;;;;;;4.82;100.00;100711.54;109112;1253;57261;-74
2023/01/10 10:29:41;;;;;;;5.50;3.20;;;;;;;4.77;100.00;100718.67;109072;1250;59870;-75
2023/01/10 10:32:35;;;;;;;5.20;3.50;;;;;;;4.77;100.00;100712.64;109026;1251;62024;-73
2023/01/10 10:35:14;;;;;;;4.40;2.80;;;;;;;4.77;100.00;100705.91;108993;1250;71263;-75
2023/01/10 10:37:52;;;;;;;4.70;2.90;;;;;;;4.76;100.00;100698.35;109099;1250;70500;-73
2023/01/10 10:40:27;;;;;;;6.00;3.30;;;;;;;4.73;100.00;100700.94;108915;1253;73451;-74
2023/01/10 10:43:04;;;;;;;5.10;3.60;;;;;;;4.77;100.00;100696.90;108953;1251;62916;-74
2023/01/10 10:45:40;;;;;;;5.80;3.60;;;;;;;4.78;100.00;100702.04;109021;1250;61257;-73
2023/01/10 10:48:22;;;;;;;8.00;3.70;;;;;;;4.83;100.00;100707.02;109133;1250;62660;-73
2023/01/10 10:51:03;;;;;;;6.90;3.60;;;;;;;4.77;100.00;100707.45;109125;1250;61655;-73
2023/01/10 10:53:33;;;;;;;5.20;3.60;;;;;;;4.77;100.00;100708.84;109160;1251;59245;-73
2023/01/10 10:56:06;;;;;;;5.70;3.90;;;;;;;4.82;100.00;100703.61;109094;1250;62368;-73
2023/01/10 10:58:36;;;;;;;6.00;3.30;;;;;;;4.77;100.00;100700.90;109015;1251;62147;-72
2023/01/10 11:01:05;;;;;;;6.70;3.90;;;;;;;4.75;100.00;100704.25;109089;1250;57636;-73
2023/01/10 11:03:48;;;;;;;6.20;3.80;;;;;;;4.71;100.00;100698.61;109113;1250;62518;-73
2023/01/10 11:06:19;;;;;;;6.90;3.90;;;;;;;4.75;100.00;100699.42;109136;1250;60927;-73
2023/01/10 11:08:52;;;;;;;6.80;3.90;;;;;;;4.81;100.00;100701.23;109153;1250;70539;-74
2023/01/10 11:11:27;;;;;;;6.50;3.60;;;;;;;4.73;100.00;100703.54;109075;1250;72807;-74
2023/01/10 11:14:03;;;;;;;8.10;4.10;;;;;;;4.70;100.00;100705.23;109124;1251;57624;-74
2023/01/10 11:16:38;;;;;;;7.30;4.40;;;;;;;4.72;100.00;100705.83;109098;1254;58079;-72
2023/01/10 11:19:25;;;;;;;5.50;4.40;;;;;;;4.65;100.00;100709.78;108836;1254;63030;-73
2023/01/10 11:22:02;;;;;;;6.30;4.50;;;;;;;4.66;100.00;100709.38;108947;1250;72192;-73
2023/01/10 11:24:42;;;;;;;8.90;5.30;;;;;;;4.61;100.00;100708.73;108991;1250;69090;-73
2023/01/10 11:27:20;;;;;;;7.60;5.00;;;;;;;4.64;100.00;100709.95;109012;1250;73786;-71
2023/01/10 11:30:02;;;;;;;8.70;5.30;;;;;;;4.63;100.00;100702.46;108987;1250;61516;-72
2023/01/10 11:32:39;;;;;;;11.60;5.30;;;;;;;4.70;100.00;100696.77;108757;1250;60851;-72
2023/01/10 11:35:24;;;;;;;9.60;5.60;;;;;;;4.68;100.00;100698.23;108917;1250;74072;-73
2023/01/10 11:38:23;;;;;;;9.10;5.60;;;;;;;4.71;100.00;100691.17;108933;1250;72785;-74
2023/01/10 11:41:01;;;;;;;11.20;5.30;;;;;;;4.70;100.00;100688.47;108899;1254;60485;-73
2023/01/10 11:43:39;;;;;;;8.40;5.30;;;;;;;4.68;100.00;100680.98;108909;1250;73904;-71
2023/01/10 11:46:25;;;;;;;7.80;4.60;;;;;;;4.74;100.00;100684.67;109124;1250;62080;-71
2023/01/10 11:49:09;;;;;;;9.60;5.30;;;;;;;4.78;100.00;100688.08;109064;1254;57792;-71
2023/01/10 11:51:45;;;;;;;8.00;4.40;;;;;;;4.78;100.00;100689.98;108948;1254;63020;-72
2023/01/10 11:54:22;;;;;;;6.30;4.30;;;;;;;4.78;100.00;100689.46;109170;1250;72331;-72
2023/01/10 11:57:15;;;;;;;6.80;4.80;;;;;;;4.78;100.00;100689.29;109085;1251;59909;-73
2023/01/10 12:00:02;;;;;;;7.40;5.00;;;;;;;4.74;100.00;100685.19;109136;1250;72943;-73
2023/01/10 12:02:44;;;;;;;9.50;5.80;;;;;;;4.78;100.00;100686.70;109111;1254;63504;-71